PWSweather.com
Personal Weather Stations
Station Observations
SANDHURSTWX
SandhurstGB

SandhurstGB

Lat: 51.3522, Lon: -0.7739

Elevation: 272.3

Station Type: Davis VP2

www.sandhurstweather.org.uk

High Low Average
Temperature 64.3°F17.9°C 45.6°F7.6°C 54.4°F12.4°C
Dew Point 56.6°F13.7°C 43.1°F6.2°C 50.5°F10.3°C
Winds 5.8 mph 9.3 kmh Calm Calm 2.0 mph WSW3.2 kmh WSW
Wind Gusts 12.7 mph20.4 kmh -- 4.0 mph6.4 kmh
Humidity 93% 76% 87%
Pressure 30.32 in1026.8 mb 30.10 in1019.3 mb -
Precipitation 0.03 in0.8 mm - -
Hour Temp Dew Point Humidity Winds Wind Gusts Pressure Precip Precip Rate Daily Precip Total
12:00 AM 46.6°F8.1°C 43.2°F6.2°C 88% Calm Calm -- 30.32 in1026.8 mb - 0.00 in0.0 mm 0.00 in0.0 mm
01:00 AM 45.7°F7.6°C 43.3°F6.3°C 91% Calm Calm 1.2 mph1.9 kmh 30.30 in1026.1 mb - 0.00 in0.0 mm 0.00 in0.0 mm
02:00 AM 45.6°F7.6°C 43.1°F6.2°C 91% Calm Calm -- 30.30 in1026.1 mb - 0.00 in0.0 mm 0.00 in0.0 mm
03:00 AM 46.8°F8.2°C 44.6°F7.0°C 92% Calm Calm -- 30.28 in1025.4 mb - 0.00 in0.0 mm 0.00 in0.0 mm
04:00 AM 47.6°F8.7°C 45.4°F7.4°C 92% 2.3 mph SW3.7 kmh SW 2.3 mph3.7 kmh 30.27 in1025.1 mb - 0.00 in0.0 mm 0.00 in0.0 mm
05:00 AM 47.9°F8.8°C 46.0°F7.8°C 93% 2.3 mph SSW3.7 kmh SSW 3.5 mph5.6 kmh 30.26 in1024.7 mb - 0.00 in0.0 mm 0.00 in0.0 mm
06:00 AM 47.8°F8.8°C 45.9°F7.7°C 93% 1.2 mph SSW1.9 kmh SSW 2.3 mph3.7 kmh 30.25 in1024.4 mb - 0.00 in0.0 mm 0.00 in0.0 mm
07:00 AM 50.2°F10.1°C 48.0°F8.9°C 92% 1.2 mph SSW1.9 kmh SSW 2.3 mph3.7 kmh 30.24 in1024.0 mb - 0.00 in0.0 mm 0.00 in0.0 mm
08:00 AM 52.8°F11.6°C 49.9°F9.9°C 90% 2.3 mph S3.7 kmh S 5.8 mph9.3 kmh 30.22 in1023.4 mb - 0.00 in0.0 mm 0.00 in0.0 mm
09:00 AM 56.5°F13.6°C 52.4°F11.3°C 86% 2.3 mph WSW3.7 kmh WSW 6.9 mph11.1 kmh 30.21 in1023.0 mb - 0.00 in0.0 mm 0.00 in0.0 mm
10:00 AM 59.0°F15.0°C 52.8°F11.6°C 80% 2.3 mph SW3.7 kmh SW 3.5 mph5.6 kmh 30.19 in1022.4 mb - 0.00 in0.0 mm 0.00 in0.0 mm
11:00 AM 60.8°F16.0°C 53.2°F11.8°C 76% 4.6 mph SSW7.4 kmh SSW 9.2 mph14.8 kmh 30.16 in1021.3 mb - 0.00 in0.0 mm 0.00 in0.0 mm
12:00 PM 60.4°F15.8°C 53.1°F11.7°C 77% 5.8 mph SW9.3 kmh SW 12.7 mph20.4 kmh 30.16 in1021.3 mb - 0.00 in0.0 mm 0.00 in0.0 mm
01:00 PM 60.9°F16.1°C 53.3°F11.8°C 76% 5.8 mph SW9.3 kmh SW 11.5 mph18.5 kmh 30.15 in1021.0 mb - 0.00 in0.0 mm 0.00 in0.0 mm
02:00 PM 61.6°F16.4°C 55.7°F13.2°C 81% 4.6 mph WSW7.4 kmh WSW 5.8 mph9.3 kmh 30.13 in1020.3 mb - 0.00 in0.0 mm 0.00 in0.0 mm
03:00 PM 63.6°F17.6°C 56.6°F13.7°C 78% 3.5 mph W5.6 kmh W 5.8 mph9.3 kmh 30.12 in1020.0 mb - 0.00 in0.0 mm 0.00 in0.0 mm
04:00 PM 64.3°F17.9°C 56.6°F13.7°C 76% 4.6 mph WSW7.4 kmh WSW 4.6 mph7.4 kmh 30.10 in1019.3 mb - 0.00 in0.0 mm 0.00 in0.0 mm
05:00 PM 59.2°F15.1°C 53.7°F12.1°C 82% 4.6 mph W7.4 kmh W 10.4 mph16.7 kmh 30.10 in1019.3 mb - 0.03 in0.8 mm 0.03 in0.8 mm
06:00 PM 57.4°F14.1°C 54.1°F12.3°C 89% 2.3 mph W3.7 kmh W 3.5 mph5.6 kmh 30.10 in1019.3 mb - 0.00 in0.0 mm 0.03 in0.8 mm
07:00 PM 56.9°F13.8°C 54.3°F12.4°C 91% Calm Calm -- 30.11 in1019.6 mb - 0.00 in0.0 mm 0.03 in0.8 mm
08:00 PM 55.7°F13.2°C 53.7°F12.1°C 93% 2.3 mph NW3.7 kmh NW 3.5 mph5.6 kmh 30.12 in1020.0 mb - 0.00 in0.0 mm 0.03 in0.8 mm
09:00 PM 54.0°F12.2°C 51.8°F11.0°C 92% 2.3 mph NW3.7 kmh NW 3.5 mph5.6 kmh 30.14 in1020.7 mb - 0.00 in0.0 mm 0.03 in0.8 mm
10:00 PM 52.1°F11.2°C 50.2°F10.1°C 93% Calm Calm -- 30.14 in1020.7 mb - 0.00 in0.0 mm 0.03 in0.8 mm
11:00 PM 51.9°F11.1°C 50.0°F10.0°C 93% Calm Calm -- 30.14 in1020.7 mb - 0.00 in0.0 mm 0.03 in0.8 mm